sensor_id;sensor_type;location;lat;lon;timestamp;P1;durP1;ratioP1;P2;durP2;ratioP2
47599;SDS011;33323;52.124;6.018;2023-07-09T00:01:56;11.80;;;7.80;;
47599;SDS011;33323;52.124;6.018;2023-07-09T00:04:23;10.23;;;7.75;;
47599;SDS011;33323;52.124;6.018;2023-07-09T00:06:50;12.25;;;7.32;;
47599;SDS011;33323;52.124;6.018;2023-07-09T00:09:18;13.40;;;7.35;;
47599;SDS011;33323;52.124;6.018;2023-07-09T00:11:49;10.98;;;7.30;;
47599;SDS011;33323;52.124;6.018;2023-07-09T00:14:18;8.60;;;6.13;;
47599;SDS011;33323;52.124;6.018;2023-07-09T00:16:45;10.82;;;7.07;;
47599;SDS011;33323;52.124;6.018;2023-07-09T00:19:17;10.50;;;7.03;;
47599;SDS011;33323;52.124;6.018;2023-07-09T00:21:50;9.27;;;6.50;;
47599;SDS011;33323;52.124;6.018;2023-07-09T00:24:21;9.15;;;7.15;;
47599;SDS011;33323;52.124;6.018;2023-07-09T00:26:48;13.18;;;6.72;;
47599;SDS011;33323;52.124;6.018;2023-07-09T00:29:16;9.68;;;7.25;;
47599;SDS011;33323;52.124;6.018;2023-07-09T00:31:43;9.73;;;7.28;;
47599;SDS011;33323;52.124;6.018;2023-07-09T00:34:13;11.35;;;7.38;;
47599;SDS011;33323;52.124;6.018;2023-07-09T00:36:44;9.98;;;6.60;;
47599;SDS011;33323;52.124;6.018;2023-07-09T00:39:15;10.05;;;7.07;;
47599;SDS011;33323;52.124;6.018;2023-07-09T00:41:45;9.38;;;7.53;;
47599;SDS011;33323;52.124;6.018;2023-07-09T00:49:26;8.88;;;7.00;;
47599;SDS011;33323;52.124;6.018;2023-07-09T00:51:59;9.15;;;6.22;;
47599;SDS011;33323;52.124;6.018;2023-07-09T00:54:37;11.95;;;7.15;;
47599;SDS011;33323;52.124;6.018;2023-07-09T00:57:09;10.20;;;7.20;;
47599;SDS011;33323;52.124;6.018;2023-07-09T00:59:46;7.70;;;6.20;;
47599;SDS011;33323;52.124;6.018;2023-07-09T01:02:18;10.18;;;6.72;;
47599;SDS011;33323;52.124;6.018;2023-07-09T01:04:51;12.68;;;7.55;;
47599;SDS011;33323;52.124;6.018;2023-07-09T01:07:22;8.65;;;7.07;;
47599;SDS011;33323;52.124;6.018;2023-07-09T01:09:50;9.82;;;7.03;;
47599;SDS011;33323;52.124;6.018;2023-07-09T01:12:17;11.13;;;8.07;;
47599;SDS011;33323;52.124;6.018;2023-07-09T01:14:47;10.48;;;7.07;;
47599;SDS011;33323;52.124;6.018;2023-07-09T01:17:18;11.43;;;7.80;;
47599;SDS011;33323;52.124;6.018;2023-07-09T01:19:48;10.55;;;7.28;;
47599;SDS011;33323;52.124;6.018;2023-07-09T01:22:18;9.18;;;7.30;;
47599;SDS011;33323;52.124;6.018;2023-07-09T01:24:52;12.20;;;7.60;;
47599;SDS011;33323;52.124;6.018;2023-07-09T01:29:56;9.77;;;7.78;;
47599;SDS011;33323;52.124;6.018;2023-07-09T01:32:25;9.20;;;7.32;;
47599;SDS011;33323;52.124;6.018;2023-07-09T01:34:57;9.63;;;7.15;;
47599;SDS011;33323;52.124;6.018;2023-07-09T01:37:32;11.00;;;6.40;;
47599;SDS011;33323;52.124;6.018;2023-07-09T01:40:03;10.32;;;6.80;;
47599;SDS011;33323;52.124;6.018;2023-07-09T01:42:52;10.52;;;7.10;;
47599;SDS011;33323;52.124;6.018;2023-07-09T01:45:19;10.13;;;6.45;;
47599;SDS011;33323;52.124;6.018;2023-07-09T01:47:46;10.27;;;6.97;;
47599;SDS011;33323;52.124;6.018;2023-07-09T01:50:14;10.25;;;6.57;;
47599;SDS011;33323;52.124;6.018;2023-07-09T01:52:43;10.23;;;7.18;;
47599;SDS011;33323;52.124;6.018;2023-07-09T01:55:12;9.20;;;6.63;;
47599;SDS011;33323;52.124;6.018;2023-07-09T01:57:43;10.73;;;6.50;;
47599;SDS011;33323;52.124;6.018;2023-07-09T02:00:13;8.85;;;6.43;;
47599;SDS011;33323;52.124;6.018;2023-07-09T02:02:43;9.93;;;6.60;;
47599;SDS011;33323;52.124;6.018;2023-07-09T02:05:13;13.23;;;7.10;;
47599;SDS011;33323;52.124;6.018;2023-07-09T02:07:45;8.75;;;7.00;;
47599;SDS011;33323;52.124;6.018;2023-07-09T02:10:14;8.60;;;6.72;;
47599;SDS011;33323;52.124;6.018;2023-07-09T02:12:44;14.23;;;8.05;;
47599;SDS011;33323;52.124;6.018;2023-07-09T02:15:12;8.80;;;6.60;;
47599;SDS011;33323;52.124;6.018;2023-07-09T02:17:42;8.18;;;6.32;;
47599;SDS011;33323;52.124;6.018;2023-07-09T02:20:10;10.77;;;6.95;;
47599;SDS011;33323;52.124;6.018;2023-07-09T02:22:38;9.88;;;6.97;;
47599;SDS011;33323;52.124;6.018;2023-07-09T02:25:06;10.07;;;6.45;;
47599;SDS011;33323;52.124;6.018;2023-07-09T02:27:35;7.72;;;6.07;;
47599;SDS011;33323;52.124;6.018;2023-07-09T02:30:04;13.55;;;7.00;;
47599;SDS011;33323;52.124;6.018;2023-07-09T02:32:33;10.73;;;7.18;;
47599;SDS011;33323;52.124;6.018;2023-07-09T02:35:01;8.75;;;6.47;;
47599;SDS011;33323;52.124;6.018;2023-07-09T02:37:28;10.18;;;7.13;;
47599;SDS011;33323;52.124;6.018;2023-07-09T02:39:55;12.20;;;7.55;;
47599;SDS011;33323;52.124;6.018;2023-07-09T02:42:23;14.00;;;7.03;;
47599;SDS011;33323;52.124;6.018;2023-07-09T02:44:50;10.30;;;6.53;;
47599;SDS011;33323;52.124;6.018;2023-07-09T02:47:18;9.90;;;6.43;;
47599;SDS011;33323;52.124;6.018;2023-07-09T02:49:48;10.38;;;6.97;;
47599;SDS011;33323;52.124;6.018;2023-07-09T02:52:15;13.23;;;6.20;;
47599;SDS011;33323;52.124;6.018;2023-07-09T02:54:42;10.18;;;6.68;;
47599;SDS011;33323;52.124;6.018;2023-07-09T02:57:09;9.68;;;6.90;;
47599;SDS011;33323;52.124;6.018;2023-07-09T02:59:36;11.98;;;7.60;;
47599;SDS011;33323;52.124;6.018;2023-07-09T03:02:03;9.23;;;6.35;;
47599;SDS011;33323;52.124;6.018;2023-07-09T03:04:31;8.55;;;6.13;;
47599;SDS011;33323;52.124;6.018;2023-07-09T03:06:59;10.10;;;6.30;;
47599;SDS011;33323;52.124;6.018;2023-07-09T03:09:26;11.00;;;6.75;;
47599;SDS011;33323;52.124;6.018;2023-07-09T03:11:54;10.60;;;6.85;;
47599;SDS011;33323;52.124;6.018;2023-07-09T03:14:22;13.43;;;6.85;;
47599;SDS011;33323;52.124;6.018;2023-07-09T03:16:49;9.65;;;6.35;;
47599;SDS011;33323;52.124;6.018;2023-07-09T03:19:17;10.27;;;6.57;;
47599;SDS011;33323;52.124;6.018;2023-07-09T03:21:44;7.22;;;5.68;;
47599;SDS011;33323;52.124;6.018;2023-07-09T03:24:11;11.07;;;6.75;;
47599;SDS011;33323;52.124;6.018;2023-07-09T03:26:41;8.18;;;6.10;;
47599;SDS011;33323;52.124;6.018;2023-07-09T03:29:08;10.23;;;5.97;;
47599;SDS011;33323;52.124;6.018;2023-07-09T03:31:35;9.82;;;6.38;;
47599;SDS011;33323;52.124;6.018;2023-07-09T03:34:03;8.65;;;6.03;;
47599;SDS011;33323;52.124;6.018;2023-07-09T03:36:30;9.57;;;6.60;;
47599;SDS011;33323;52.124;6.018;2023-07-09T03:38:57;8.18;;;6.13;;
47599;SDS011;33323;52.124;6.018;2023-07-09T03:41:24;8.93;;;5.47;;
47599;SDS011;33323;52.124;6.018;2023-07-09T03:43:51;12.82;;;6.13;;
47599;SDS011;33323;52.124;6.018;2023-07-09T03:46:20;8.38;;;6.05;;
47599;SDS011;33323;52.124;6.018;2023-07-09T03:48:47;10.35;;;5.85;;
47599;SDS011;33323;52.124;6.018;2023-07-09T03:51:17;8.65;;;6.22;;
47599;SDS011;33323;52.124;6.018;2023-07-09T03:53:44;9.90;;;5.25;;
47599;SDS011;33323;52.124;6.018;2023-07-09T03:56:11;8.95;;;6.05;;
47599;SDS011;33323;52.124;6.018;2023-07-09T03:58:38;8.20;;;5.55;;
47599;SDS011;33323;52.124;6.018;2023-07-09T04:01:05;8.73;;;5.55;;
47599;SDS011;33323;52.124;6.018;2023-07-09T04:03:32;10.57;;;6.28;;
47599;SDS011;33323;52.124;6.018;2023-07-09T04:05:59;10.82;;;5.88;;
47599;SDS011;33323;52.124;6.018;2023-07-09T04:08:27;8.88;;;5.88;;
47599;SDS011;33323;52.124;6.018;2023-07-09T04:10:54;8.48;;;5.82;;
47599;SDS011;33323;52.124;6.018;2023-07-09T04:13:26;10.07;;;6.85;;
47599;SDS011;33323;52.124;6.018;2023-07-09T04:15:55;6.90;;;5.93;;
47599;SDS011;33323;52.124;6.018;2023-07-09T04:18:23;8.93;;;5.18;;
47599;SDS011;33323;52.124;6.018;2023-07-09T04:20:50;8.02;;;5.45;;
47599;SDS011;33323;52.124;6.018;2023-07-09T04:23:18;8.93;;;6.13;;
47599;SDS011;33323;52.124;6.018;2023-07-09T04:25:46;10.15;;;5.55;;
47599;SDS011;33323;52.124;6.018;2023-07-09T04:28:13;10.13;;;5.97;;
47599;SDS011;33323;52.124;6.018;2023-07-09T04:30:48;10.95;;;6.07;;
47599;SDS011;33323;52.124;6.018;2023-07-09T04:33:17;10.63;;;6.32;;
47599;SDS011;33323;52.124;6.018;2023-07-09T04:35:46;12.55;;;6.57;;
47599;SDS011;33323;52.124;6.018;2023-07-09T04:38:14;9.50;;;6.45;;
47599;SDS011;33323;52.124;6.018;2023-07-09T04:40:42;10.02;;;6.53;;
47599;SDS011;33323;52.124;6.018;2023-07-09T04:43:09;11.70;;;6.55;;
47599;SDS011;33323;52.124;6.018;2023-07-09T04:45:36;9.65;;;6.43;;
47599;SDS011;33323;52.124;6.018;2023-07-09T04:48:03;8.20;;;6.00;;
47599;SDS011;33323;52.124;6.018;2023-07-09T04:50:31;10.20;;;6.18;;
47599;SDS011;33323;52.124;6.018;2023-07-09T04:52:59;7.88;;;6.15;;
47599;SDS011;33323;52.124;6.018;2023-07-09T04:55:26;10.48;;;6.47;;
47599;SDS011;33323;52.124;6.018;2023-07-09T04:57:54;9.93;;;6.78;;
47599;SDS011;33323;52.124;6.018;2023-07-09T05:00:21;8.52;;;5.80;;
47599;SDS011;33323;52.124;6.018;2023-07-09T05:02:48;10.07;;;6.05;;
47599;SDS011;33323;52.124;6.018;2023-07-09T05:05:15;11.25;;;6.50;;
47599;SDS011;33323;52.124;6.018;2023-07-09T05:07:42;9.30;;;5.97;;
47599;SDS011;33323;52.124;6.018;2023-07-09T05:10:09;8.05;;;6.03;;
47599;SDS011;33323;52.124;6.018;2023-07-09T05:12:46;9.00;;;6.20;;
47599;SDS011;33323;52.124;6.018;2023-07-09T05:15:18;7.85;;;6.13;;
47599;SDS011;33323;52.124;6.018;2023-07-09T05:17:47;7.85;;;5.72;;
47599;SDS011;33323;52.124;6.018;2023-07-09T05:20:14;10.13;;;6.00;;
47599;SDS011;33323;52.124;6.018;2023-07-09T05:22:42;9.30;;;6.30;;
47599;SDS011;33323;52.124;6.018;2023-07-09T05:25:09;8.95;;;6.03;;
47599;SDS011;33323;52.124;6.018;2023-07-09T05:27:36;8.05;;;6.55;;
47599;SDS011;33323;52.124;6.018;2023-07-09T05:30:03;13.15;;;7.00;;
47599;SDS011;33323;52.124;6.018;2023-07-09T05:32:32;11.93;;;6.88;;
47599;SDS011;33323;52.124;6.018;2023-07-09T05:34:59;12.57;;;6.95;;
47599;SDS011;33323;52.124;6.018;2023-07-09T05:37:26;10.70;;;7.70;;
47599;SDS011;33323;52.124;6.018;2023-07-09T05:39:53;15.52;;;7.68;;
47599;SDS011;33323;52.124;6.018;2023-07-09T05:42:20;13.90;;;8.75;;
47599;SDS011;33323;52.124;6.018;2023-07-09T05:44:47;14.07;;;7.60;;
47599;SDS011;33323;52.124;6.018;2023-07-09T05:47:14;14.38;;;9.05;;
47599;SDS011;33323;52.124;6.018;2023-07-09T05:49:42;12.65;;;8.98;;
47599;SDS011;33323;52.124;6.018;2023-07-09T05:52:09;10.20;;;8.65;;
47599;SDS011;33323;52.124;6.018;2023-07-09T05:54:36;10.00;;;7.40;;
47599;SDS011;33323;52.124;6.018;2023-07-09T05:57:03;12.07;;;7.88;;
47599;SDS011;33323;52.124;6.018;2023-07-09T05:59:31;11.07;;;8.60;;
47599;SDS011;33323;52.124;6.018;2023-07-09T06:01:58;12.73;;;9.88;;
47599;SDS011;33323;52.124;6.018;2023-07-09T06:04:27;17.75;;;10.40;;
47599;SDS011;33323;52.124;6.018;2023-07-09T06:06:54;16.13;;;11.80;;
47599;SDS011;33323;52.124;6.018;2023-07-09T06:09:21;13.65;;;10.68;;
47599;SDS011;33323;52.124;6.018;2023-07-09T06:11:48;14.30;;;11.65;;
47599;SDS011;33323;52.124;6.018;2023-07-09T06:14:15;17.23;;;11.77;;
47599;SDS011;33323;52.124;6.018;2023-07-09T06:16:43;14.35;;;11.27;;
47599;SDS011;33323;52.124;6.018;2023-07-09T06:19:10;15.20;;;10.95;;
47599;SDS011;33323;52.124;6.018;2023-07-09T06:21:38;15.45;;;11.88;;
47599;SDS011;33323;52.124;6.018;2023-07-09T06:24:06;14.02;;;10.43;;
47599;SDS011;33323;52.124;6.018;2023-07-09T06:26:34;15.57;;;11.15;;
47599;SDS011;33323;52.124;6.018;2023-07-09T06:29:01;20.20;;;11.27;;
47599;SDS011;33323;52.124;6.018;2023-07-09T06:31:28;16.67;;;11.55;;
47599;SDS011;33323;52.124;6.018;2023-07-09T06:33:56;15.52;;;11.80;;
47599;SDS011;33323;52.124;6.018;2023-07-09T06:36:23;18.90;;;12.15;;
47599;SDS011;33323;52.124;6.018;2023-07-09T06:38:50;17.25;;;11.18;;
47599;SDS011;33323;52.124;6.018;2023-07-09T06:41:17;16.60;;;11.82;;
47599;SDS011;33323;52.124;6.018;2023-07-09T06:43:44;17.50;;;10.90;;
47599;SDS011;33323;52.124;6.018;2023-07-09T06:46:12;15.85;;;11.02;;
47599;SDS011;33323;52.124;6.018;2023-07-09T06:48:40;14.38;;;10.68;;
47599;SDS011;33323;52.124;6.018;2023-07-09T06:51:07;16.25;;;11.65;;
47599;SDS011;33323;52.124;6.018;2023-07-09T06:53:35;17.02;;;10.07;;
47599;SDS011;33323;52.124;6.018;2023-07-09T06:56:02;15.95;;;10.30;;
47599;SDS011;33323;52.124;6.018;2023-07-09T06:58:31;14.52;;;9.43;;
47599;SDS011;33323;52.124;6.018;2023-07-09T07:01:00;14.25;;;9.38;;
47599;SDS011;33323;52.124;6.018;2023-07-09T07:03:31;15.32;;;9.60;;
47599;SDS011;33323;52.124;6.018;2023-07-09T07:05:59;12.73;;;9.38;;
47599;SDS011;33323;52.124;6.018;2023-07-09T07:08:26;13.27;;;10.10;;
47599;SDS011;33323;52.124;6.018;2023-07-09T07:10:56;18.50;;;10.48;;
47599;SDS011;33323;52.124;6.018;2023-07-09T07:13:30;16.52;;;9.95;;
47599;SDS011;33323;52.124;6.018;2023-07-09T07:16:03;14.52;;;11.07;;
47599;SDS011;33323;52.124;6.018;2023-07-09T07:18:33;17.20;;;9.73;;
47599;SDS011;33323;52.124;6.018;2023-07-09T07:21:00;14.95;;;9.50;;
47599;SDS011;33323;52.124;6.018;2023-07-09T07:23:28;13.95;;;9.52;;
47599;SDS011;33323;52.124;6.018;2023-07-09T07:25:56;15.35;;;8.68;;
47599;SDS011;33323;52.124;6.018;2023-07-09T07:28:23;14.75;;;9.10;;
47599;SDS011;33323;52.124;6.018;2023-07-09T07:31:00;14.25;;;9.23;;
47599;SDS011;33323;52.124;6.018;2023-07-09T07:33:34;15.00;;;9.10;;
47599;SDS011;33323;52.124;6.018;2023-07-09T07:36:03;13.75;;;8.57;;
47599;SDS011;33323;52.124;6.018;2023-07-09T07:38:51;15.30;;;8.02;;
47599;SDS011;33323;52.124;6.018;2023-07-09T07:41:18;14.45;;;8.70;;
47599;SDS011;33323;52.124;6.018;2023-07-09T07:43:45;11.93;;;8.18;;
47599;SDS011;33323;52.124;6.018;2023-07-09T07:46:12;9.82;;;7.70;;
47599;SDS011;33323;52.124;6.018;2023-07-09T07:48:40;10.75;;;7.93;;
47599;SDS011;33323;52.124;6.018;2023-07-09T07:51:08;13.88;;;7.75;;
47599;SDS011;33323;52.124;6.018;2023-07-09T07:53:35;12.85;;;7.53;;
47599;SDS011;33323;52.124;6.018;2023-07-09T07:56:02;14.43;;;7.50;;
47599;SDS011;33323;52.124;6.018;2023-07-09T07:58:30;15.75;;;7.10;;
47599;SDS011;33323;52.124;6.018;2023-07-09T08:00:58;15.13;;;7.20;;
47599;SDS011;33323;52.124;6.018;2023-07-09T08:03:26;15.10;;;7.53;;
47599;SDS011;33323;52.124;6.018;2023-07-09T08:05:53;9.77;;;6.47;;
47599;SDS011;33323;52.124;6.018;2023-07-09T08:08:20;9.20;;;6.43;;
47599;SDS011;33323;52.124;6.018;2023-07-09T08:10:49;8.27;;;6.65;;
47599;SDS011;33323;52.124;6.018;2023-07-09T08:13:17;13.38;;;7.07;;
47599;SDS011;33323;52.124;6.018;2023-07-09T08:15:45;10.35;;;6.85;;
47599;SDS011;33323;52.124;6.018;2023-07-09T08:18:13;13.25;;;7.40;;
47599;SDS011;33323;52.124;6.018;2023-07-09T08:20:42;10.10;;;6.80;;
47599;SDS011;33323;52.124;6.018;2023-07-09T08:23:11;15.80;;;6.80;;
47599;SDS011;33323;52.124;6.018;2023-07-09T08:25:38;11.13;;;6.32;;
47599;SDS011;33323;52.124;6.018;2023-07-09T08:28:05;11.52;;;6.80;;
47599;SDS011;33323;52.124;6.018;2023-07-09T08:30:32;11.68;;;6.80;;
47599;SDS011;33323;52.124;6.018;2023-07-09T08:33:00;11.38;;;6.47;;
47599;SDS011;33323;52.124;6.018;2023-07-09T08:35:27;12.48;;;6.43;;
47599;SDS011;33323;52.124;6.018;2023-07-09T08:40:29;9.98;;;6.50;;
47599;SDS011;33323;52.124;6.018;2023-07-09T08:43:01;13.07;;;7.10;;
47599;SDS011;33323;52.124;6.018;2023-07-09T08:45:41;10.18;;;6.82;;
47599;SDS011;33323;52.124;6.018;2023-07-09T08:48:19;9.70;;;6.70;;
47599;SDS011;33323;52.124;6.018;2023-07-09T08:50:59;10.07;;;5.57;;
47599;SDS011;33323;52.124;6.018;2023-07-09T08:54:00;10.85;;;5.55;;
47599;SDS011;33323;52.124;6.018;2023-07-09T08:56:28;13.10;;;6.60;;
47599;SDS011;33323;52.124;6.018;2023-07-09T08:59:00;16.27;;;6.50;;
47599;SDS011;33323;52.124;6.018;2023-07-09T09:01:38;9.00;;;5.80;;
47599;SDS011;33323;52.124;6.018;2023-07-09T09:04:19;8.38;;;5.97;;
47599;SDS011;33323;52.124;6.018;2023-07-09T09:06:53;10.80;;;5.47;;
47599;SDS011;33323;52.124;6.018;2023-07-09T09:09:40;9.88;;;6.10;;
47599;SDS011;33323;52.124;6.018;2023-07-09T09:12:17;11.80;;;5.10;;
47599;SDS011;33323;52.124;6.018;2023-07-09T09:15:15;12.00;;;5.43;;
47599;SDS011;33323;52.124;6.018;2023-07-09T09:17:44;10.90;;;5.93;;
47599;SDS011;33323;52.124;6.018;2023-07-09T09:20:12;10.20;;;5.47;;
47599;SDS011;33323;52.124;6.018;2023-07-09T09:22:49;9.23;;;6.13;;
47599;SDS011;33323;52.124;6.018;2023-07-09T09:27:55;8.05;;;5.47;;
47599;SDS011;33323;52.124;6.018;2023-07-09T09:30:24;8.13;;;5.90;;
47599;SDS011;33323;52.124;6.018;2023-07-09T09:35:33;10.25;;;6.63;;
47599;SDS011;33323;52.124;6.018;2023-07-09T09:38:09;8.05;;;5.60;;
47599;SDS011;33323;52.124;6.018;2023-07-09T09:40:48;10.88;;;5.75;;
47599;SDS011;33323;52.124;6.018;2023-07-09T09:43:16;10.93;;;5.88;;
47599;SDS011;33323;52.124;6.018;2023-07-09T09:45:49;10.25;;;6.28;;
47599;SDS011;33323;52.124;6.018;2023-07-09T09:48:26;9.85;;;5.38;;
47599;SDS011;33323;52.124;6.018;2023-07-09T09:50:55;11.30;;;5.63;;
47599;SDS011;33323;52.124;6.018;2023-07-09T09:53:28;10.20;;;4.68;;
47599;SDS011;33323;52.124;6.018;2023-07-09T09:56:09;11.43;;;5.78;;
47599;SDS011;33323;52.124;6.018;2023-07-09T09:58:41;9.90;;;5.63;;
47599;SDS011;33323;52.124;6.018;2023-07-09T10:01:13;10.32;;;6.18;;
47599;SDS011;33323;52.124;6.018;2023-07-09T10:03:46;9.63;;;5.38;;
47599;SDS011;33323;52.124;6.018;2023-07-09T10:06:19;10.95;;;6.28;;
47599;SDS011;33323;52.124;6.018;2023-07-09T10:12:13;8.93;;;5.72;;
47599;SDS011;33323;52.124;6.018;2023-07-09T10:17:54;8.25;;;5.60;;
47599;SDS011;33323;52.124;6.018;2023-07-09T10:20:37;10.50;;;5.13;;
47599;SDS011;33323;52.124;6.018;2023-07-09T10:34:37;9.23;;;5.18;;
47599;SDS011;33323;52.124;6.018;2023-07-09T10:43:06;8.93;;;5.05;;
47599;SDS011;33323;52.124;6.018;2023-07-09T10:45:44;13.45;;;5.93;;
47599;SDS011;33323;52.124;6.018;2023-07-09T10:48:18;7.22;;;5.03;;
47599;SDS011;33323;52.124;6.018;2023-07-09T10:50:58;9.15;;;5.63;;
47599;SDS011;33323;52.124;6.018;2023-07-09T10:56:19;7.88;;;4.70;;
47599;SDS011;33323;52.124;6.018;2023-07-09T11:01:48;8.10;;;5.15;;
47599;SDS011;33323;52.124;6.018;2023-07-09T11:04:33;11.93;;;5.80;;
47599;SDS011;33323;52.124;6.018;2023-07-09T11:10:27;8.45;;;4.32;;
47599;SDS011;33323;52.124;6.018;2023-07-09T11:15:42;7.50;;;5.25;;
47599;SDS011;33323;52.124;6.018;2023-07-09T11:18:24;10.38;;;5.22;;
47599;SDS011;33323;52.124;6.018;2023-07-09T11:21:03;7.72;;;5.47;;
47599;SDS011;33323;52.124;6.018;2023-07-09T11:23:53;7.97;;;5.43;;
47599;SDS011;33323;52.124;6.018;2023-07-09T11:31:35;8.90;;;4.30;;
47599;SDS011;33323;52.124;6.018;2023-07-09T11:37:00;9.57;;;5.00;;
47599;SDS011;33323;52.124;6.018;2023-07-09T11:39:30;7.32;;;4.20;;
47599;SDS011;33323;52.124;6.018;2023-07-09T11:42:22;12.43;;;4.57;;
47599;SDS011;33323;52.124;6.018;2023-07-09T11:44:57;10.48;;;5.28;;
47599;SDS011;33323;52.124;6.018;2023-07-09T11:47:37;7.65;;;4.22;;
47599;SDS011;33323;52.124;6.018;2023-07-09T11:50:15;8.20;;;4.03;;
47599;SDS011;33323;52.124;6.018;2023-07-09T11:52:55;7.63;;;4.43;;
47599;SDS011;33323;52.124;6.018;2023-07-09T11:55:42;7.70;;;4.50;;
47599;SDS011;33323;52.124;6.018;2023-07-09T11:58:13;19.98;;;4.32;;
47599;SDS011;33323;52.124;6.018;2023-07-09T12:00:43;8.32;;;4.10;;
47599;SDS011;33323;52.124;6.018;2023-07-09T12:03:29;8.63;;;4.70;;
47599;SDS011;33323;52.124;6.018;2023-07-09T12:06:05;6.95;;;3.95;;
47599;SDS011;33323;52.124;6.018;2023-07-09T12:08:47;9.63;;;4.45;;
47599;SDS011;33323;52.124;6.018;2023-07-09T12:11:20;10.45;;;4.18;;
47599;SDS011;33323;52.124;6.018;2023-07-09T12:14:08;8.02;;;4.30;;
47599;SDS011;33323;52.124;6.018;2023-07-09T12:16:41;9.40;;;3.78;;
47599;SDS011;33323;52.124;6.018;2023-07-09T12:19:15;5.53;;;4.00;;
47599;SDS011;33323;52.124;6.018;2023-07-09T12:21:46;6.30;;;4.03;;
47599;SDS011;33323;52.124;6.018;2023-07-09T12:24:19;8.70;;;4.53;;
47599;SDS011;33323;52.124;6.018;2023-07-09T12:27:03;7.03;;;4.28;;
47599;SDS011;33323;52.124;6.018;2023-07-09T12:29:44;6.43;;;3.63;;
47599;SDS011;33323;52.124;6.018;2023-07-09T12:32:13;7.18;;;3.50;;
47599;SDS011;33323;52.124;6.018;2023-07-09T12:34:52;8.75;;;3.70;;
47599;SDS011;33323;52.124;6.018;2023-07-09T12:37:21;6.38;;;3.35;;
47599;SDS011;33323;52.124;6.018;2023-07-09T12:39:52;8.50;;;4.75;;
47599;SDS011;33323;52.124;6.018;2023-07-09T12:42:20;4.68;;;3.22;;
47599;SDS011;33323;52.124;6.018;2023-07-09T12:45:02;5.45;;;3.90;;
47599;SDS011;33323;52.124;6.018;2023-07-09T12:47:29;6.75;;;2.72;;
47599;SDS011;33323;52.124;6.018;2023-07-09T12:50:09;6.40;;;3.38;;
47599;SDS011;33323;52.124;6.018;2023-07-09T12:52:48;5.03;;;2.70;;
47599;SDS011;33323;52.124;6.018;2023-07-09T12:55:19;6.90;;;3.80;;
47599;SDS011;33323;52.124;6.018;2023-07-09T12:57:56;6.07;;;3.35;;
47599;SDS011;33323;52.124;6.018;2023-07-09T13:00:30;7.45;;;3.97;;
47599;SDS011;33323;52.124;6.018;2023-07-09T13:02:58;10.20;;;2.97;;
47599;SDS011;33323;52.124;6.018;2023-07-09T13:05:27;9.73;;;3.50;;
47599;SDS011;33323;52.124;6.018;2023-07-09T13:08:00;8.10;;;3.10;;
47599;SDS011;33323;52.124;6.018;2023-07-09T13:10:29;8.27;;;3.47;;
47599;SDS011;33323;52.124;6.018;2023-07-09T13:13:02;12.63;;;3.70;;
47599;SDS011;33323;52.124;6.018;2023-07-09T13:18:05;9.52;;;4.00;;
47599;SDS011;33323;52.124;6.018;2023-07-09T13:20:36;10.27;;;4.03;;
47599;SDS011;33323;52.124;6.018;2023-07-09T13:23:12;7.47;;;4.10;;
47599;SDS011;33323;52.124;6.018;2023-07-09T13:25:50;16.55;;;4.60;;
47599;SDS011;33323;52.124;6.018;2023-07-09T13:28:22;6.03;;;3.30;;
47599;SDS011;33323;52.124;6.018;2023-07-09T13:30:55;11.25;;;4.18;;
47599;SDS011;33323;52.124;6.018;2023-07-09T13:33:27;11.07;;;5.10;;
47599;SDS011;33323;52.124;6.018;2023-07-09T13:35:54;10.18;;;3.75;;
47599;SDS011;33323;52.124;6.018;2023-07-09T13:38:23;7.13;;;3.65;;
47599;SDS011;33323;52.124;6.018;2023-07-09T13:40:53;7.95;;;3.88;;
47599;SDS011;33323;52.124;6.018;2023-07-09T13:43:35;6.28;;;3.50;;
47599;SDS011;33323;52.124;6.018;2023-07-09T13:46:06;7.20;;;4.50;;
47599;SDS011;33323;52.124;6.018;2023-07-09T13:48:34;11.98;;;4.57;;
47599;SDS011;33323;52.124;6.018;2023-07-09T13:51:22;6.10;;;3.63;;
47599;SDS011;33323;52.124;6.018;2023-07-09T13:53:50;7.85;;;3.58;;
47599;SDS011;33323;52.124;6.018;2023-07-09T13:56:21;7.18;;;3.70;;
47599;SDS011;33323;52.124;6.018;2023-07-09T13:58:48;6.55;;;3.65;;
47599;SDS011;33323;52.124;6.018;2023-07-09T14:01:19;6.50;;;3.17;;
47599;SDS011;33323;52.124;6.018;2023-07-09T14:03:48;5.43;;;3.35;;
47599;SDS011;33323;52.124;6.018;2023-07-09T14:06:17;5.95;;;3.55;;
47599;SDS011;33323;52.124;6.018;2023-07-09T14:08:44;8.05;;;3.55;;
47599;SDS011;33323;52.124;6.018;2023-07-09T14:11:12;10.60;;;4.07;;
47599;SDS011;33323;52.124;6.018;2023-07-09T14:13:42;8.13;;;4.00;;
47599;SDS011;33323;52.124;6.018;2023-07-09T14:16:12;11.40;;;5.53;;
47599;SDS011;33323;52.124;6.018;2023-07-09T14:18:41;8.60;;;5.75;;
47599;SDS011;33323;52.124;6.018;2023-07-09T14:21:12;8.63;;;5.30;;
47599;SDS011;33323;52.124;6.018;2023-07-09T14:23:41;6.85;;;4.82;;
47599;SDS011;33323;52.124;6.018;2023-07-09T14:26:09;8.48;;;4.72;;
47599;SDS011;33323;52.124;6.018;2023-07-09T14:28:36;9.13;;;5.43;;
47599;SDS011;33323;52.124;6.018;2023-07-09T14:31:19;7.82;;;5.38;;
47599;SDS011;33323;52.124;6.018;2023-07-09T14:33:50;7.90;;;5.13;;
47599;SDS011;33323;52.124;6.018;2023-07-09T14:36:17;10.52;;;4.65;;
47599;SDS011;33323;52.124;6.018;2023-07-09T14:38:44;8.32;;;4.15;;
47599;SDS011;33323;52.124;6.018;2023-07-09T14:41:19;7.47;;;4.20;;
47599;SDS011;33323;52.124;6.018;2023-07-09T14:43:49;8.48;;;4.68;;
47599;SDS011;33323;52.124;6.018;2023-07-09T14:46:16;9.82;;;4.20;;
47599;SDS011;33323;52.124;6.018;2023-07-09T14:48:43;8.65;;;4.65;;
47599;SDS011;33323;52.124;6.018;2023-07-09T14:51:14;8.30;;;4.20;;
47599;SDS011;33323;52.124;6.018;2023-07-09T14:53:42;7.90;;;4.40;;
47599;SDS011;33323;52.124;6.018;2023-07-09T14:56:11;9.23;;;4.35;;
47599;SDS011;33323;52.124;6.018;2023-07-09T14:58:40;6.32;;;4.55;;
47599;SDS011;33323;52.124;6.018;2023-07-09T15:01:14;6.43;;;4.25;;
47599;SDS011;33323;52.124;6.018;2023-07-09T15:03:41;5.65;;;3.92;;
47599;SDS011;33323;52.124;6.018;2023-07-09T15:06:08;8.93;;;3.63;;
47599;SDS011;33323;52.124;6.018;2023-07-09T15:08:35;5.15;;;3.67;;
47599;SDS011;33323;52.124;6.018;2023-07-09T15:11:03;5.85;;;3.78;;
47599;SDS011;33323;52.124;6.018;2023-07-09T15:13:35;6.07;;;4.03;;
47599;SDS011;33323;52.124;6.018;2023-07-09T15:16:03;7.57;;;4.40;;
47599;SDS011;33323;52.124;6.018;2023-07-09T15:18:31;6.13;;;3.30;;
47599;SDS011;33323;52.124;6.018;2023-07-09T15:21:01;9.20;;;3.50;;
47599;SDS011;33323;52.124;6.018;2023-07-09T15:23:31;3.97;;;2.70;;
47599;SDS011;33323;52.124;6.018;2023-07-09T15:26:07;10.98;;;4.00;;
47599;SDS011;33323;52.124;6.018;2023-07-09T15:28:40;10.07;;;4.32;;
47599;SDS011;33323;52.124;6.018;2023-07-09T15:31:11;7.05;;;3.67;;
47599;SDS011;33323;52.124;6.018;2023-07-09T15:33:38;6.50;;;3.40;;
47599;SDS011;33323;52.124;6.018;2023-07-09T15:36:09;8.93;;;3.58;;
47599;SDS011;33323;52.124;6.018;2023-07-09T15:38:38;7.18;;;3.03;;
47599;SDS011;33323;52.124;6.018;2023-07-09T15:41:11;11.48;;;4.32;;
47599;SDS011;33323;52.124;6.018;2023-07-09T15:43:41;9.48;;;3.78;;
47599;SDS011;33323;52.124;6.018;2023-07-09T15:46:14;5.28;;;2.83;;
47599;SDS011;33323;52.124;6.018;2023-07-09T15:48:46;5.93;;;3.35;;
47599;SDS011;33323;52.124;6.018;2023-07-09T15:51:14;7.10;;;3.55;;
47599;SDS011;33323;52.124;6.018;2023-07-09T15:53:42;7.00;;;3.03;;
47599;SDS011;33323;52.124;6.018;2023-07-09T15:56:16;4.75;;;2.80;;
47599;SDS011;33323;52.124;6.018;2023-07-09T15:58:56;7.95;;;2.30;;
47599;SDS011;33323;52.124;6.018;2023-07-09T16:01:25;4.32;;;2.40;;
47599;SDS011;33323;52.124;6.018;2023-07-09T16:03:59;4.78;;;2.67;;